EW1786 Bologna IT current weather conditions

sailwx.info

Wind from 183 at 6 knots gusting 9

Air temperature 22.8° C
Dewpoint 11.2° C

Last reported at 2020-Sep-25 13:02 UTC.
Time now 2020-Sep-25 13:42 UTC

Location: N 44°27' E 011°23'.
View on Google Maps.

See reports from other nearby stations

  
Tides and Currents Weather Stations Pressure Air Temp Water Temp Dewpoint Dewpoint Depression Visibility Wind Speed Wind Dir Waves Ship Positions
date/time (UTC)wind fromknots sea level pressurealtimeterstation pressurevisibilityair tempwater tempwave heightnotes
2020-Sep-25 13:02 183 6 gusting 9 22.8
2020-Sep-25 12:52 189 6 gusting 10 22.8
2020-Sep-25 12:42 182 5 gusting 7 22.8
2020-Sep-25 12:32 189 4 gusting 6 22.8
2020-Sep-25 12:22 201 10 gusting 24 23.3
2020-Sep-25 12:12 184 6 gusting 10 23.3
2020-Sep-25 12:02 184 6 gusting 11 23.9
2020-Sep-25 11:52 187 6 gusting 10 24.4
2020-Sep-25 11:42 184 5 gusting 8 24.4
2020-Sep-25 11:32 195 4 gusting 8 24.4
2020-Sep-25 11:22 198 7 gusting 18 24.4
2020-Sep-25 11:12 271 5 gusting 24 23.9
2020-Sep-25 11:02 180 4 gusting 5 23.3
2020-Sep-25 10:52 180 4 gusting 6 23.3
2020-Sep-25 10:42 188 4 gusting 6 22.8
2020-Sep-25 10:32 190 4 gusting 9 23.9
2020-Sep-25 10:22 187 2 gusting 3 23.3
2020-Sep-25 10:12 186 2 gusting 4 23.3
2020-Sep-25 10:02 180 5 gusting 6 22.8
2020-Sep-25 09:52 184 6 gusting 6 22.8
2020-Sep-25 09:42 184 6 gusting 11 23.3
2020-Sep-25 09:32 182 5 gusting 11 23.3
2020-Sep-25 09:22 186 5 gusting 7 23.3
2020-Sep-25 09:12 187 6 gusting 9 22.8
2020-Sep-25 09:02 188 4 gusting 6 22.8
2020-Sep-25 08:52 185 4 gusting 6 22.8
2020-Sep-25 08:42 196 8 gusting 18 22.8
2020-Sep-25 08:32 203 6 gusting 15 22.2
2020-Sep-25 08:22 193 4 gusting 12 22.2
2020-Sep-25 08:12 185 5 gusting 8 22.2
2020-Sep-25 08:02 195 7 gusting 12 21.7
2020-Sep-25 07:52 191 4 gusting 5 21.7
2020-Sep-25 07:42 190 6 gusting 13 21.1
2020-Sep-25 07:32 185 3 gusting 5 21.1
2020-Sep-25 07:22 181 4 gusting 7 20.6
2020-Sep-25 07:12 183 4 gusting 6 20.6
2020-Sep-25 07:02 186 3 gusting 4 20.6
2020-Sep-25 06:52 182 3 gusting 5 20.6
2020-Sep-25 06:42 180 6 gusting 7 20.6
2020-Sep-25 06:32 183 3 gusting 5 20.0
2020-Sep-25 06:22 186 4 gusting 6 20.0
2020-Sep-25 06:12 180 3 gusting 4 20.0
2020-Sep-25 06:02 180 3 gusting 3 20.0
2020-Sep-25 05:52 184 2 gusting 3 20.0
2020-Sep-25 05:42 192 2 gusting 4 20.0
2020-Sep-25 05:32 180 1 gusting 2 20.6
2020-Sep-25 05:22 184 3 gusting 5 20.0
2020-Sep-25 05:12 188 2 gusting 3 20.0
2020-Sep-25 05:02 180 5 gusting 5 20.0
2020-Sep-25 04:52 184 4 gusting 6 20.0
2020-Sep-25 04:42 180 5 gusting 6 19.4
2020-Sep-25 04:32 184 4 gusting 5 19.4
2020-Sep-25 04:22 183 3 gusting 5 18.9
2020-Sep-25 04:12 183 1 gusting 2 18.9
2020-Sep-25 04:02 186 2 gusting 2 19.4
2020-Sep-25 03:52 182 4 gusting 6 18.9
2020-Sep-25 03:42 180 1 gusting 1 18.3
2020-Sep-25 03:32 18.3
2020-Sep-25 03:22 180 1 gusting 1 18.3
2020-Sep-25 03:12 180 1 gusting 2 17.8
2020-Sep-25 03:02 180 0 gusting 1 17.8
2020-Sep-25 02:52 188 0 gusting 1 18.3
2020-Sep-25 02:42 264 5 gusting 24 18.3
2020-Sep-25 02:32 256 3 gusting 12 18.3
2020-Sep-25 02:22 255 5 gusting 24 18.3
2020-Sep-25 02:12 183 4 gusting 5 17.8
2020-Sep-25 02:02 182 3 gusting 4 17.2
2020-Sep-25 01:52 183 3 gusting 4 17.2
2020-Sep-25 01:42 294 6 gusting 24 17.2
2020-Sep-25 01:32 282 6 gusting 24 17.2
2020-Sep-25 01:22 180 0 gusting 1 17.2
2020-Sep-25 01:12 180 17.2
2020-Sep-25 01:02 307 5 gusting 24 17.2
2020-Sep-25 00:52 17.8
2020-Sep-25 00:42 180 2 gusting 3 17.8
2020-Sep-25 00:32 056 17.8
2020-Sep-25 00:22 348 7 gusting 24 17.8
2020-Sep-25 00:12 020 3 gusting 9 17.8
2020-Sep-25 00:02 325 5 gusting 24 17.8
2020-Sep-24 23:52 189 0 gusting 2 17.8
2020-Sep-24 23:42 325 0 gusting 6 17.8
2020-Sep-24 23:32 023 17.8
2020-Sep-24 23:22 315 3 gusting 24 17.8
2020-Sep-24 23:12 17.8
2020-Sep-24 23:02 17.8
2020-Sep-24 22:52 338 0 gusting 6 17.8
2020-Sep-24 22:42 180 17.8
2020-Sep-24 22:32 165 1 gusting 2 17.8
2020-Sep-24 22:22 158 2 gusting 3 17.8
2020-Sep-24 22:12 174 2 gusting 6 17.8
2020-Sep-24 22:02 208 2 gusting 6 17.8
2020-Sep-24 21:52 17.8
2020-Sep-24 21:42 180 17.8
2020-Sep-24 21:32 338 0 gusting 6 17.8
2020-Sep-24 21:22 17.8
2020-Sep-24 21:12 338 0 gusting 6 17.8
2020-Sep-24 21:02 17.8
2020-Sep-24 20:52 338 0 gusting 6 17.8
2020-Sep-24 20:42 293 1 gusting 12 17.8
2020-Sep-24 20:32 002 0 gusting 6 18.3
2020-Sep-24 20:22 338 1 gusting 6 18.3
2020-Sep-24 20:12 18.3
2020-Sep-24 20:02 18.3
2020-Sep-24 19:52 338 1 gusting 6 18.9
2020-Sep-24 19:42 015 0 gusting 1 18.9
2020-Sep-24 19:32 180 0 gusting 1 18.9
2020-Sep-24 19:22 336 4 gusting 31 19.4
2020-Sep-24 19:12 023 3 gusting 3 20.0
2020-Sep-24 19:02 20.6
2020-Sep-24 18:52 21.1
2020-Sep-24 18:42 315 3 gusting 24 21.1
2020-Sep-24 18:32 180 0 gusting 1 21.7
2020-Sep-24 18:22 180 0 gusting 1 21.7
2020-Sep-24 18:12 180 1 gusting 2 21.7
2020-Sep-24 18:02 180 1 gusting 2 21.1
2020-Sep-24 17:52 180 0 gusting 1 22.2
2020-Sep-24 17:42 180 0 gusting 1 22.8
2020-Sep-24 17:32 185 1 gusting 2 22.8
2020-Sep-24 17:22 180 1 gusting 1 22.8
2020-Sep-24 17:12 290 6 gusting 37 22.8
2020-Sep-24 17:02 188 1 gusting 2 22.2
2020-Sep-24 16:52 180 0 gusting 1 22.8
2020-Sep-24 16:42 180 2 gusting 3 22.8
2020-Sep-24 16:32 182 2 gusting 3 22.8
2020-Sep-24 16:22 184 1 gusting 3 22.8
2020-Sep-24 16:12 180 1 gusting 2 22.8
2020-Sep-24 16:02 185 2 gusting 3 22.8
2020-Sep-24 15:52 182 2 gusting 3 22.8
2020-Sep-24 15:42 180 0 gusting 1 22.2
2020-Sep-24 15:32 198 0 gusting 1 22.8
2020-Sep-24 15:22 186 2 gusting 3 22.2
2020-Sep-24 15:12 189 1 gusting 2 21.7
2020-Sep-24 15:02 185 1 gusting 4 21.1
2020-Sep-24 14:52 180 0 gusting 1 21.1
2020-Sep-24 14:42 197 2 gusting 5 20.6
2020-Sep-24 14:32 191 2 gusting 5 20.6
2020-Sep-24 14:22 203 21.1
2020-Sep-24 14:12 203 20.6
2020-Sep-24 14:02 180 0 gusting 2 20.6
2020-Sep-24 13:52 180 0 gusting 1 20.6
2020-Sep-24 13:42 193 1 gusting 5 20.6
2020-Sep-24 13:32 180 0 gusting 1 20.6
2020-Sep-24 13:22 185 1 gusting 3 20.0
2020-Sep-24 13:02 180 1 gusting 2 20.0
2020-Sep-24 12:52 180 2 gusting 3 20.6
2020-Sep-24 12:42 181 1 gusting 3 21.7
2020-Sep-24 12:32 182 2 gusting 3 22.8
2020-Sep-24 12:22 180 1 gusting 3 23.3
2020-Sep-24 12:12 180 2 gusting 3 23.3
2020-Sep-24 12:02 190 2 gusting 3 23.3
2020-Sep-24 11:52 186 1 gusting 1 23.3
2020-Sep-24 11:42 188 1 gusting 3 23.3
2020-Sep-24 11:32 182 2 gusting 3 23.9
2020-Sep-24 11:22 187 1 gusting 2 23.9
2020-Sep-24 11:12 198 2 gusting 5 24.4
2020-Sep-24 11:02 195 3 gusting 8 25.0
2020-Sep-24 10:52 191 0 gusting 1 25.0
2020-Sep-24 10:42 188 1 gusting 4 25.0
2020-Sep-24 10:32 180 1 gusting 2 24.4
2020-Sep-24 10:22 194 3 gusting 5 24.4
2020-Sep-24 10:12 194 0 gusting 2 24.4
2020-Sep-24 10:02 292 1 gusting 12 24.4
2020-Sep-24 09:52 203 0 gusting 2 23.3
2020-Sep-24 09:42 189 0 gusting 4 23.3
2020-Sep-24 09:32 198 3 gusting 6 23.3
2020-Sep-24 09:22 200 1 gusting 3 23.9
2020-Sep-24 09:12 201 2 gusting 6 23.9
2020-Sep-24 09:02 283 6 gusting 37 22.8
2020-Sep-24 08:52 189 1 gusting 2 22.2
2020-Sep-24 08:42 185 1 gusting 3 22.2
2020-Sep-24 08:32 182 1 gusting 2 22.2
2020-Sep-24 08:22 222 2 gusting 12 21.7
2020-Sep-24 08:12 200 2 gusting 6 21.7
2020-Sep-24 08:02 199 2 gusting 6 21.7
2020-Sep-24 07:52 188 1 gusting 2 21.1
2020-Sep-24 07:42 196 0 gusting 1 21.1
2020-Sep-24 07:32 193 0 gusting 1 21.1
2020-Sep-24 07:22 191 1 gusting 5 21.1
2020-Sep-24 07:12 325 2 gusting 24 20.6
2020-Sep-24 07:02 20.6
2020-Sep-24 06:52 203 19.4
2020-Sep-24 06:42 18.9
2020-Sep-24 06:32 203 18.3
2020-Sep-24 06:22 203 0 gusting 0 18.3
2020-Sep-24 06:12 203 0 gusting 2 18.3
2020-Sep-24 06:02 187 1 gusting 1 17.8
2020-Sep-24 05:52 180 1 gusting 2 17.2
2020-Sep-24 05:42 194 1 gusting 3 17.2
2020-Sep-24 05:32 183 1 gusting 2 17.2
2020-Sep-24 05:22 272 4 gusting 24 17.8
2020-Sep-24 05:12 195 1 gusting 3 17.8
2020-Sep-24 05:02 187 1 gusting 1 18.3
2020-Sep-24 04:52 189 1 gusting 1 18.3
2020-Sep-24 04:42 199 1 gusting 2 18.3
2020-Sep-24 04:32 198 0 gusting 1 18.3
2020-Sep-24 04:22 322 6 gusting 37 17.8
2020-Sep-24 04:12 189 1 gusting 2 18.3
2020-Sep-24 04:02 194 1 gusting 2 18.3
2020-Sep-24 03:52 203 0 gusting 1 18.3
2020-Sep-24 03:42 185 1 gusting 2 18.3
2020-Sep-24 03:32 187 1 gusting 2 18.3
2020-Sep-24 03:22 184 1 gusting 2 17.8
2020-Sep-24 03:12 203 0 gusting 1 17.8
2020-Sep-24 03:02 180 0 gusting 0 17.8
2020-Sep-24 02:52 180 17.8
2020-Sep-24 02:42 191 0 gusting 1 17.2
2020-Sep-24 02:32 180 1 gusting 1 16.7
2020-Sep-24 02:22 316 4 gusting 24 17.2
2020-Sep-24 02:12 203 1 gusting 3 17.8
2020-Sep-24 02:02 186 0 gusting 1 18.3
2020-Sep-24 01:52 186 1 gusting 2 17.8
2020-Sep-24 01:42 186 1 gusting 1 18.3
2020-Sep-24 01:32 196 1 gusting 5 18.3
2020-Sep-24 01:22 249 4 gusting 24 18.3
2020-Sep-24 01:12 183 1 gusting 2 18.3
2020-Sep-24 01:02 187 1 gusting 1 18.3
2020-Sep-24 00:52 180 1 gusting 2 18.3
2020-Sep-24 00:42 194 1 gusting 1 18.3
2020-Sep-24 00:32 198 1 gusting 1 18.3
2020-Sep-24 00:22 189 1 gusting 2 17.8
2020-Sep-24 00:12 200 1 gusting 2 18.3
2020-Sep-24 00:02 180 1 gusting 2 18.3
2020-Sep-23 23:52 188 2 gusting 6 18.3
2020-Sep-23 23:42 183 1 gusting 2 18.3
2020-Sep-23 23:32 184 2 gusting 3 18.3
2020-Sep-23 23:22 197 1 gusting 1 18.3
2020-Sep-23 23:12 189 1 gusting 2 18.3
2020-Sep-23 23:02 180 1 gusting 2 18.3
2020-Sep-23 22:52 195 1 gusting 1 18.3
2020-Sep-23 22:42 183 1 gusting 1 18.3
2020-Sep-23 22:32 192 2 gusting 6 18.3
2020-Sep-23 22:22 185 1 gusting 2 18.3
2020-Sep-23 22:12 182 2 gusting 2 18.3
2020-Sep-23 22:02 199 2 gusting 4 18.9
2020-Sep-23 21:52 187 2 gusting 4 18.9
2020-Sep-23 21:42 189 1 gusting 4 18.9
2020-Sep-23 21:32 184 1 gusting 3 18.9
2020-Sep-23 21:22 184 1 gusting 2 18.9
2020-Sep-23 21:12 187 2 gusting 3 18.9
2020-Sep-23 21:02 188 2 gusting 3 18.9
2020-Sep-23 20:52 186 2 gusting 3 18.3
2020-Sep-23 20:42 185 2 gusting 3 18.3
2020-Sep-23 20:32 194 1 gusting 3 18.3
2020-Sep-23 20:22 190 1 gusting 1 18.9
2020-Sep-23 20:12 195 2 gusting 4 18.9
2020-Sep-23 20:02 187 1 gusting 2 18.9
2020-Sep-23 19:52 182 2 gusting 3 18.9
2020-Sep-23 19:42 188 1 gusting 2 18.9
2020-Sep-23 19:32 182 1 gusting 1 18.9
2020-Sep-23 19:22 182 1 gusting 3 18.9
2020-Sep-23 19:12 299 3 gusting 24 19.4
2020-Sep-23 19:02 187 1 gusting 2 19.4
2020-Sep-23 18:52 192 1 gusting 3 18.9
2020-Sep-23 18:42 230 2 gusting 12 19.4
2020-Sep-23 18:32 189 1 gusting 3 19.4
2020-Sep-23 18:22 198 0 gusting 1 19.4
2020-Sep-23 18:12 193 1 gusting 2 20.0
2020-Sep-23 18:02 188 1 gusting 1 20.0
2020-Sep-23 17:52 180 0 gusting 1 20.0
2020-Sep-23 17:42 180 0 gusting 1 20.6
2020-Sep-23 17:32 180 0 gusting 1 20.6
2020-Sep-23 17:22 180 21.1
2020-Sep-23 17:12 203 0 gusting 1 21.1
2020-Sep-23 17:02 201 0 gusting 1 21.7
2020-Sep-23 16:52 203 0 gusting 0 22.2
2020-Sep-23 16:42 196 1 gusting 2 22.8
2020-Sep-23 16:32 186 1 gusting 1 22.8
2020-Sep-23 16:22 191 1 gusting 3 22.8
2020-Sep-23 16:12 190 2 gusting 5 22.8
2020-Sep-23 16:02 186 1 gusting 2 22.2
2020-Sep-23 15:52 194 2 gusting 6 22.2
2020-Sep-23 15:42 257 5 gusting 37 22.8
2020-Sep-23 15:32 195 1 gusting 4 23.3
2020-Sep-23 15:22 180 23.3
2020-Sep-23 15:12 200 1 gusting 5 22.8
2020-Sep-23 15:02 278 4 gusting 24 23.3
2020-Sep-23 14:52 193 2 gusting 6 23.9
2020-Sep-23 14:42 205 3 gusting 12 24.4
2020-Sep-23 14:32 180 0 gusting 1 24.4
2020-Sep-23 14:22 191 1 gusting 5 25.0
2020-Sep-23 14:12 196 2 gusting 9 25.0
2020-Sep-23 14:02 194 1 gusting 2 24.4
2020-Sep-23 13:52 201 1 gusting 3 23.9
2020-Sep-23 13:42 198 3 gusting 9 23.3
2020-Sep-23 13:32 182 1 gusting 3 23.3
2020-Sep-23 13:22 274 4 gusting 24 23.3
2020-Sep-23 13:12 190 3 gusting 6 23.3
2020-Sep-23 13:02 183 2 gusting 3 23.3